Share

Austin, NV

5:14 AM PDT on April 23, 2014 (GMT -0700)
Eureka (KP68) Elev 5945 ft | 39.60 °N, 116.01 °W | Change Station

Current weather conditions updated 21 minutes ago

Partly Cloudy
Partly Cloudy
27 °F
Feels Like 27 °F
N
0
Wind Variable Wind from North
Gusts 8 mph
Sunrise 5:59 AM
Sunset 7:35 PM
Moon Last Quarter

Today is forecast to be Much Cooler than yesterday.

Pressure 29.96 in
Visibility -9999.0 miles
Clouds
Dew Point 21 °F
Humidity 78%
Rainfall 0.00 in
Snow Depth Not available.
UV Not available.
Pollen 9.10 out of 12
Air Quality Not available.
Flu Activity Sporadic
METAR KP68 231153Z AUTO 00000KT M03/M06 A2999 RMK AO1 SLP146 7//// T10281061 10011 21028 53006

More Conditions Fewer Conditions

Pressure 29.96 in
Visibility -9999.0 miles
Clouds
Dew Point 21 °F
Humidity 78%
Rainfall 0.00 in
Snow Depth Not available.
UV Not available.
Pollen 9.10 out of 12
Air Quality Not available.
Flu Activity Sporadic
METAR KP68 231153Z AUTO 00000KT M03/M06 A2999 RMK AO1 SLP146 7//// T10281061 10011 21028 53006

More Conditions Fewer Conditions

10-Day Weather Forecast

Almanac

Astronomy

Apr. 23, 2014 Rise Set
Actual Time 5:59 AM PDT 7:35 PM PDT
Civil Twilight 5:31 AM PDT 8:03 PM PDT
Nautical Twilight 4:56 AM PDT 8:38 PM PDT
Astronomical Twilight 4:20 AM PDT 9:14 PM PDT
Moon 2:33 AM PDT 1:49 PM PDT
Length of Visible Light 14h 32m
Length of Day
13h 35m
Tomorrow will be 2m 22s longer.
Last Quarter, 37% of the Moon is Illuminated
Today
Last Quarter
Apr 29
New
May 6
First Quarter
May 14
Full
May 21
Last Quarter

Today's Extremes

State Highs State Lows

Community

  • April Sunset
    April Sunset
  • Waiting..
    Waiting..
  • Sunset...
    Sunset...
  • Happy outdoor day
    Happy outdoor day
  • mystic afternoon....
    mystic afternoon....

WunderPhotos

Upload Photos

1,704,250 photos uploaded!

Nearby

Snow Depth

Station Depth Elevation
Big Creek Summit 29 in 8700 ft
Lewis Peak 1 in 7400 ft
Corral Canyon 42 in 8500 ft
Green Mountain 16 in 8000 ft
Lamoille #3 6 in 7700 ft

Coastal Water Temperatures

Place Temperature
No Stations Reporting

Earthquake Activity

City Distance Mag. Time & Date
Currant, Nevada 98 miles 3.3 2:41 AM PDT
2014-04-18
Currant, Nevada 107 miles 2.8 4:04 PM PDT
2014-04-17
Carlin, Nevada 88 miles 2.5 10:07 AM PDT
2014-04-17
Minimum magnitude displayed is 2.5.

Nearby Weather Stations

Station Location Temp. Windchill Dew Point Humidity Wind Precip. Elev Updated Type
RAWS AUSTIN NV, Austin, NV 29 °F 24 °F 18 °F 62% SE  at  5 mph 0.00 in / hr 6310 ft 3:50 AM PDT MADIS

Show More Stations Show Fewer Stations

What do you think?

We're not finished. Please let us know what you like, what you don't like, and what you are still missing.